createdAt,value
2023-01-07T00:01:51.998Z,101615.77
2023-01-07T00:04:21.788Z,101611.36
2023-01-07T00:06:52.851Z,101600.37
2023-01-07T00:09:22.503Z,101595.56
2023-01-07T00:11:51.734Z,101594.23
2023-01-07T00:14:21.200Z,101589.54
2023-01-07T00:16:50.413Z,101588.58
2023-01-07T00:19:21.873Z,101589.42
2023-01-07T00:21:51.155Z,101588.88
2023-01-07T00:24:21.091Z,101589.23
2023-01-07T00:26:50.306Z,101589.50
2023-01-07T00:29:21.314Z,101591.16
2023-01-07T00:31:50.586Z,101588.11
2023-01-07T00:34:21.647Z,101590.19
2023-01-07T00:36:50.939Z,101587.34
2023-01-07T00:39:21.837Z,101583.91
2023-01-07T00:42:10.939Z,101581.61
2023-01-07T00:44:40.490Z,101574.97
2023-01-07T00:47:09.723Z,101577.47
2023-01-07T00:49:39.036Z,101585.02
2023-01-07T00:52:08.520Z,101582.38
2023-01-07T00:54:37.724Z,101576.51
2023-01-07T00:57:07.210Z,101571.00
2023-01-07T00:59:36.797Z,101570.89
2023-01-07T01:02:06.552Z,101562.67
2023-01-07T01:04:35.959Z,101562.21
2023-01-07T01:07:06.457Z,101565.94
2023-01-07T01:09:37.157Z,101556.26
2023-01-07T01:12:06.905Z,101551.45
2023-01-07T01:14:36.115Z,101551.34
2023-01-07T01:17:05.366Z,101541.08
2023-01-07T01:19:34.779Z,101552.08
2023-01-07T01:22:03.989Z,101537.13
2023-01-07T01:24:33.428Z,101545.85
2023-01-07T01:27:03.537Z,101537.48
2023-01-07T01:29:33.102Z,101545.15
2023-01-07T01:32:02.409Z,101540.01
2023-01-07T01:34:32.438Z,101542.73
2023-01-07T01:37:01.830Z,101535.55
2023-01-07T01:39:31.367Z,101540.92
2023-01-07T01:42:01.016Z,101532.20
2023-01-07T01:44:37.329Z,101532.28
2023-01-07T01:47:28.751Z,101523.39
2023-01-07T01:50:07.547Z,101526.14
2023-01-07T01:52:40.018Z,101522.86
2023-01-07T01:55:09.214Z,101520.05
2023-01-07T01:57:40.620Z,101523.23
2023-01-07T02:00:12.490Z,101520.36
2023-01-07T02:02:49.077Z,101519.23
2023-01-07T02:05:18.644Z,101520.55
2023-01-07T02:07:48.216Z,101507.94
2023-01-07T02:10:21.295Z,101509.47
2023-01-07T02:13:20.872Z,101508.68
2023-01-07T02:15:59.419Z,101515.83
2023-01-07T02:18:35.226Z,101510.88
2023-01-07T02:21:18.112Z,101519.12
2023-01-07T02:24:02.443Z,101515.17
2023-01-07T02:27:10.285Z,101511.45
2023-01-07T02:29:59.600Z,101513.09
2023-01-07T02:32:44.039Z,101513.83
2023-01-07T02:35:44.683Z,101512.41
2023-01-07T02:38:23.352Z,101514.81
2023-01-07T02:41:11.257Z,101502.81
2023-01-07T02:43:49.824Z,101514.40
2023-01-07T02:46:38.325Z,101508.19
2023-01-07T02:49:12.187Z,101504.95
2023-01-07T02:51:42.816Z,101499.73
2023-01-07T02:54:23.366Z,101500.59
2023-01-07T02:57:20.671Z,101498.95
2023-01-07T03:00:08.788Z,101494.69
2023-01-07T03:03:02.952Z,101501.91
2023-01-07T03:05:47.499Z,101491.38
2023-01-07T03:08:53.758Z,101487.80
2023-01-07T03:11:24.551Z,101481.44
2023-01-07T03:14:03.144Z,101479.66
2023-01-07T03:16:40.563Z,101472.56
2023-01-07T03:19:16.516Z,101472.78
2023-01-07T03:21:47.876Z,101470.94
2023-01-07T03:24:18.189Z,101478.22
2023-01-07T03:26:49.982Z,101475.70
2023-01-07T03:29:20.200Z,101463.44
2023-01-07T03:32:00.707Z,101456.59
2023-01-07T03:34:30.530Z,101459.19
2023-01-07T03:37:03.937Z,101457.52
2023-01-07T03:39:35.408Z,101455.81
2023-01-07T03:42:26.795Z,101454.14
2023-01-07T03:44:56.507Z,101453.19
2023-01-07T03:47:29.184Z,101453.67
2023-01-07T03:49:59.041Z,101450.97
2023-01-07T03:52:28.447Z,101444.51
2023-01-07T03:54:58.460Z,101441.52
2023-01-07T03:57:29.212Z,101435.55
2023-01-07T04:00:00.212Z,101437.83
2023-01-07T04:02:30.578Z,101436.84
2023-01-07T04:04:59.824Z,101438.62
2023-01-07T04:07:29.107Z,101437.58
2023-01-07T04:09:58.953Z,101432.55
2023-01-07T04:12:28.495Z,101438.38
2023-01-07T04:14:59.324Z,101429.70
2023-01-07T04:17:29.486Z,101426.55
2023-01-07T04:19:59.687Z,101416.03
2023-01-07T04:22:29.130Z,101417.70
2023-01-07T04:24:58.544Z,101414.33
2023-01-07T04:27:29.809Z,101410.77
2023-01-07T04:29:59.487Z,101402.20
2023-01-07T04:32:30.755Z,101400.55
2023-01-07T04:35:00.417Z,101405.06
2023-01-07T04:37:30.109Z,101396.33
2023-01-07T04:39:59.646Z,101392.05
2023-01-07T04:42:30.566Z,101394.23
2023-01-07T04:45:00.493Z,101389.93
2023-01-07T04:47:29.701Z,101376.84
2023-01-07T04:49:59.826Z,101375.48
2023-01-07T04:52:30.770Z,101373.86
2023-01-07T04:55:00.317Z,101374.72
2023-01-07T04:57:29.602Z,101374.33
2023-01-07T05:00:00.394Z,101372.47
2023-01-07T05:02:30.667Z,101370.48
2023-01-07T05:05:00.142Z,101363.61
2023-01-07T05:07:29.931Z,101365.63
2023-01-07T05:09:59.795Z,101363.39
2023-01-07T05:12:30.690Z,101356.95
2023-01-07T05:15:00.160Z,101349.41
2023-01-07T05:17:29.805Z,101344.66
2023-01-07T05:19:59.654Z,101340.59
2023-01-07T05:22:29.050Z,101343.33
2023-01-07T05:24:58.942Z,101343.45
2023-01-07T05:27:28.916Z,101337.73
2023-01-07T05:29:59.742Z,101337.86
2023-01-07T05:32:28.967Z,101332.37
2023-01-07T05:34:58.898Z,101332.14
2023-01-07T05:37:29.360Z,101323.17
2023-01-07T05:39:59.105Z,101327.73
2023-01-07T05:42:28.407Z,101327.73
2023-01-07T05:44:57.907Z,101323.91
2023-01-07T05:47:27.266Z,101323.32
2023-01-07T05:49:56.651Z,101325.72
2023-01-07T05:52:26.487Z,101313.66
2023-01-07T05:54:55.688Z,101308.17
2023-01-07T05:57:24.959Z,101299.08
2023-01-07T05:59:54.132Z,101300.86
2023-01-07T06:02:23.647Z,101299.54
2023-01-07T06:04:52.990Z,101302.52
2023-01-07T06:07:22.340Z,101303.37
2023-01-07T06:09:51.832Z,101297.02
2023-01-07T06:12:21.053Z,101291.48
2023-01-07T06:14:50.239Z,101284.68
2023-01-07T06:17:19.452Z,101290.78
2023-01-07T06:19:48.719Z,101286.11
2023-01-07T06:22:17.932Z,101280.05
2023-01-07T06:24:47.335Z,101285.19
2023-01-07T06:27:16.676Z,101280.66
2023-01-07T06:29:46.125Z,101274.31
2023-01-07T06:32:15.301Z,101281.52
2023-01-07T06:34:44.677Z,101270.61
2023-01-07T06:37:15.135Z,101277.68
2023-01-07T06:39:44.624Z,101277.30
2023-01-07T06:42:13.859Z,101276.10
2023-01-07T06:44:43.472Z,101272.77
2023-01-07T06:47:12.802Z,101270.14
2023-01-07T06:49:42.242Z,101268.21
2023-01-07T06:52:11.465Z,101270.95
2023-01-07T06:54:40.941Z,101257.22
2023-01-07T06:57:10.123Z,101263.53
2023-01-07T06:59:39.353Z,101257.18
2023-01-07T07:02:08.895Z,101247.86
2023-01-07T07:04:38.539Z,101253.70
2023-01-07T07:07:07.862Z,101248.09
2023-01-07T07:09:37.163Z,101250.11
2023-01-07T07:12:06.611Z,101247.23
2023-01-07T07:14:36.727Z,101242.67
2023-01-07T07:17:06.277Z,101240.16
2023-01-07T07:19:36.065Z,101241.02
2023-01-07T07:22:05.258Z,101245.42
2023-01-07T07:24:34.784Z,101236.95
2023-01-07T07:27:04.099Z,101235.28
2023-01-07T07:29:33.341Z,101234.44
2023-01-07T07:32:03.207Z,101235.17
2023-01-07T07:34:34.691Z,101230.72
2023-01-07T07:37:11.509Z,101240.63
2023-01-07T07:39:41.147Z,101234.39
2023-01-07T07:42:10.358Z,101233.92
2023-01-07T07:44:41.410Z,101231.48
2023-01-07T07:47:12.141Z,101230.40
2023-01-07T07:49:41.753Z,101225.25
2023-01-07T07:52:10.960Z,101218.02
2023-01-07T07:54:41.028Z,101221.84
2023-01-07T07:57:10.220Z,101215.89
2023-01-07T07:59:40.374Z,101221.20
2023-01-07T08:02:14.287Z,101215.38
2023-01-07T08:04:44.134Z,101214.17
2023-01-07T08:07:13.701Z,101201.17
2023-01-07T08:09:44.833Z,101196.66
2023-01-07T08:12:14.016Z,101197.34
2023-01-07T08:14:43.961Z,101203.42
2023-01-07T08:17:13.251Z,101194.38
2023-01-07T08:19:42.897Z,101196.04
2023-01-07T08:22:12.136Z,101202.61
2023-01-07T08:24:41.551Z,101197.85
2023-01-07T08:27:10.740Z,101196.77
2023-01-07T08:29:40.255Z,101189.15
2023-01-07T08:32:09.447Z,101188.77
2023-01-07T08:34:38.674Z,101194.06
2023-01-07T08:37:07.888Z,101177.55
2023-01-07T08:39:37.396Z,101185.32
2023-01-07T08:42:06.924Z,101187.60
2023-01-07T08:44:36.121Z,101181.14
2023-01-07T08:47:05.776Z,101179.83
2023-01-07T08:49:35.063Z,101176.96
2023-01-07T08:52:04.343Z,101177.22
2023-01-07T08:54:34.037Z,101170.17
2023-01-07T08:57:03.193Z,101169.67
2023-01-07T08:59:32.428Z,101171.11
2023-01-07T09:02:01.781Z,101149.95
2023-01-07T09:04:31.163Z,101156.43
2023-01-07T09:07:00.389Z,101152.48
2023-01-07T09:09:29.591Z,101149.25
2023-01-07T09:11:58.803Z,101150.56
2023-01-07T09:14:28.416Z,101155.71
2023-01-07T09:16:57.651Z,101147.58
2023-01-07T09:19:27.010Z,101146.38
2023-01-07T09:21:56.661Z,101144.95
2023-01-07T09:24:26.568Z,101141.34
2023-01-07T09:26:55.779Z,101132.63
2023-01-07T09:29:25.460Z,101126.27
2023-01-07T09:31:54.890Z,101124.13
2023-01-07T09:34:24.340Z,101121.48
2023-01-07T09:36:53.587Z,101121.26
2023-01-07T09:39:23.555Z,101117.75
2023-01-07T09:42:11.008Z,101106.41
2023-01-07T09:45:11.322Z,101104.13
2023-01-07T09:47:43.523Z,101102.17
2023-01-07T09:50:19.150Z,101096.84
2023-01-07T09:52:51.582Z,101082.56
2023-01-07T09:56:10.909Z,101084.78
2023-01-07T09:58:18.317Z,101078.91
2023-01-07T10:00:59.688Z,101078.83
2023-01-07T10:03:35.366Z,101062.89
2023-01-07T10:06:10.569Z,101062.04
2023-01-07T10:08:52.250Z,101061.14
2023-01-07T10:11:30.456Z,101053.62
2023-01-07T10:14:25.530Z,101056.63
2023-01-07T10:17:04.176Z,101050.75
2023-01-07T10:19:45.710Z,101045.73
2023-01-07T10:22:32.250Z,101035.88
2023-01-07T10:25:06.748Z,101026.47
2023-01-07T10:27:38.956Z,101032.56
2023-01-07T10:30:14.117Z,101024.75
2023-01-07T10:32:43.507Z,101023.20
2023-01-07T10:35:19.583Z,101013.69
2023-01-07T10:37:48.908Z,101013.37
2023-01-07T10:40:33.516Z,101011.31
2023-01-07T10:43:24.157Z,101009.69
2023-01-07T10:46:11.673Z,100993.28
2023-01-07T10:49:02.587Z,100981.47
2023-01-07T10:51:41.485Z,100970.13
2023-01-07T10:54:22.945Z,100976.48
2023-01-07T10:56:57.346Z,100975.11
2023-01-07T10:59:27.268Z,100962.73
2023-01-07T11:01:59.436Z,100953.48
2023-01-07T11:04:28.787Z,100941.47
2023-01-07T11:07:13.814Z,100932.84
2023-01-07T11:09:44.941Z,100920.06
2023-01-07T11:12:39.196Z,100913.47
2023-01-07T11:15:11.736Z,100912.43
2023-01-07T11:17:41.684Z,100903.53
2023-01-07T11:20:12.278Z,100898.78
2023-01-07T11:22:41.601Z,100884.29
2023-01-07T11:25:28.770Z,100887.03
2023-01-07T11:28:00.664Z,100874.14
2023-01-07T11:30:34.792Z,100870.05
2023-01-07T11:33:06.264Z,100892.68
2023-01-07T11:35:37.074Z,100874.47
2023-01-07T11:38:09.474Z,100868.15
2023-01-07T11:40:39.054Z,100867.00
2023-01-07T11:43:20.618Z,100866.33
2023-01-07T11:46:19.907Z,100866.59
2023-01-07T11:48:42.196Z,100856.23
2023-01-07T11:51:12.178Z,100847.77
2023-01-07T11:53:44.308Z,100849.44
2023-01-07T11:56:19.229Z,100852.14
2023-01-07T11:58:50.715Z,100856.56
2023-01-07T12:01:23.093Z,100855.81
2023-01-07T12:04:04.311Z,100847.54
2023-01-07T12:06:39.093Z,100849.09
2023-01-07T12:09:14.541Z,100841.45
2023-01-07T12:11:45.436Z,100830.91
2023-01-07T12:14:23.864Z,100821.22
2023-01-07T12:16:54.320Z,100820.81
2023-01-07T12:19:28.331Z,100817.09
2023-01-07T12:22:03.522Z,100806.78
2023-01-07T12:24:44.844Z,100802.55
2023-01-07T12:27:49.096Z,100795.69
2023-01-07T12:30:24.453Z,100794.11
2023-01-07T12:33:16.535Z,100783.27
2023-01-07T12:35:46.433Z,100769.81
2023-01-07T12:38:21.533Z,100763.92
2023-01-07T12:40:52.901Z,100753.62
2023-01-07T12:43:36.348Z,100756.07
2023-01-07T12:46:08.354Z,100742.41
2023-01-07T12:49:00.472Z,100730.68
2023-01-07T12:51:42.039Z,100729.64
2023-01-07T12:54:23.594Z,100717.55
2023-01-07T12:57:01.189Z,100716.31
2023-01-07T12:59:47.128Z,100711.86
2023-01-07T13:02:20.710Z,100701.87
2023-01-07T13:05:11.039Z,100691.66
2023-01-07T13:07:55.132Z,100691.94
2023-01-07T13:10:36.545Z,100673.48
2023-01-07T13:13:14.029Z,100664.62
2023-01-07T13:15:43.502Z,100676.20
2023-01-07T13:18:15.760Z,100669.47
2023-01-07T13:20:54.362Z,100658.16
2023-01-07T13:23:46.096Z,100654.35
2023-01-07T13:26:40.991Z,100654.08
2023-01-07T13:29:21.936Z,100651.48
2023-01-07T13:32:06.924Z,100656.48
2023-01-07T13:35:03.341Z,100645.79
2023-01-07T13:37:52.616Z,100647.05
2023-01-07T13:40:34.249Z,100641.36
2023-01-07T13:43:21.785Z,100635.39
2023-01-07T13:45:57.334Z,100628.95
2023-01-07T13:48:28.228Z,100623.28
2023-01-07T13:51:00.541Z,100630.21
2023-01-07T13:53:36.110Z,100618.12
2023-01-07T13:56:23.705Z,100616.11
2023-01-07T13:58:57.163Z,100615.12
2023-01-07T14:01:35.388Z,100613.89
2023-01-07T14:04:10.791Z,100610.36
2023-01-07T14:06:51.200Z,100609.85
2023-01-07T14:09:26.234Z,100593.76
2023-01-07T14:12:18.519Z,100589.22
2023-01-07T14:14:53.784Z,100590.05
2023-01-07T14:17:59.218Z,100581.11
2023-01-07T14:20:32.521Z,100579.70
2023-01-07T14:23:14.146Z,100571.86
2023-01-07T14:26:03.106Z,100575.59
2023-01-07T14:28:52.445Z,100578.12
2023-01-07T14:31:23.678Z,100577.84
2023-01-07T14:33:57.737Z,100583.73
2023-01-07T14:36:46.702Z,100594.41
2023-01-07T14:39:36.796Z,100583.39
2023-01-07T14:42:24.169Z,100582.77
2023-01-07T14:44:53.477Z,100585.05
2023-01-07T14:47:48.273Z,100569.45
2023-01-07T14:50:48.061Z,100580.39
2023-01-07T14:53:35.156Z,100566.41
2023-01-07T14:56:16.436Z,100570.36
2023-01-07T14:59:05.488Z,100573.80
2023-01-07T15:01:41.041Z,100572.91
2023-01-07T15:04:42.102Z,100568.14
2023-01-07T15:07:16.991Z,100560.02
2023-01-07T15:10:07.130Z,100557.94
2023-01-07T15:12:55.389Z,100561.41
2023-01-07T15:15:52.980Z,100556.06
2023-01-07T15:18:21.949Z,100558.55
2023-01-07T15:21:13.180Z,100553.34
2023-01-07T15:24:01.129Z,100548.28
2023-01-07T15:26:36.068Z,100550.89
2023-01-07T15:29:34.001Z,100550.08
2023-01-07T15:32:18.617Z,100547.91
2023-01-07T15:34:48.692Z,100540.50
2023-01-07T15:37:19.300Z,100541.27
2023-01-07T15:39:52.135Z,100535.81
2023-01-07T15:42:23.659Z,100528.03
2023-01-07T15:44:55.320Z,100535.89
2023-01-07T15:47:42.037Z,100525.17
2023-01-07T15:50:23.528Z,100511.94
2023-01-07T15:53:06.290Z,100521.13
2023-01-07T15:55:39.793Z,100522.94
2023-01-07T15:58:22.131Z,100514.65
2023-01-07T16:00:53.575Z,100505.25
2023-01-07T16:03:23.787Z,100506.56
2023-01-07T16:05:53.433Z,100499.26
2023-01-07T16:08:26.124Z,100491.98
2023-01-07T16:11:01.250Z,100493.03
2023-01-07T16:13:31.868Z,100491.24
2023-01-07T16:16:03.581Z,100487.24
2023-01-07T16:18:33.229Z,100490.34
2023-01-07T16:21:07.448Z,100502.38
2023-01-07T16:23:38.232Z,100491.94
2023-01-07T16:26:13.907Z,100505.59
2023-01-07T16:28:49.132Z,100501.41
2023-01-07T16:31:21.619Z,100502.78
2023-01-07T16:33:56.831Z,100511.86
2023-01-07T16:36:31.987Z,100503.09
2023-01-07T16:39:04.369Z,100507.38
2023-01-07T16:41:33.847Z,100514.44
2023-01-07T16:44:03.227Z,100509.73
2023-01-07T16:46:35.954Z,100514.06
2023-01-07T16:49:14.450Z,100514.11
2023-01-07T16:51:56.006Z,100516.62
2023-01-07T16:54:37.440Z,100511.73
2023-01-07T16:57:16.435Z,100521.98
2023-01-07T16:59:53.763Z,100513.98
2023-01-07T17:02:41.354Z,100508.10
2023-01-07T17:05:13.307Z,100510.00
2023-01-07T17:07:43.798Z,100515.05
2023-01-07T17:10:32.788Z,100505.39
2023-01-07T17:13:08.276Z,100497.84
2023-01-07T17:15:41.997Z,100499.50
2023-01-07T17:18:17.710Z,100487.09
2023-01-07T17:20:54.813Z,100480.66
2023-01-07T17:23:30.187Z,100483.06
2023-01-07T17:26:20.603Z,100479.07
2023-01-07T17:28:58.853Z,100476.91
2023-01-07T17:31:28.665Z,100464.70
2023-01-07T17:33:58.298Z,100462.65
2023-01-07T17:36:28.170Z,100458.72
2023-01-07T17:38:57.500Z,100455.29
2023-01-07T17:41:44.552Z,100455.42
2023-01-07T17:44:14.955Z,100439.53
2023-01-07T17:46:44.174Z,100434.09
2023-01-07T17:49:13.881Z,100428.97
2023-01-07T17:51:45.467Z,100429.63
2023-01-07T17:54:17.895Z,100447.67
2023-01-07T17:56:47.230Z,100424.64
2023-01-07T17:59:18.689Z,100429.89
2023-01-07T18:01:48.434Z,100420.78
2023-01-07T18:04:18.210Z,100411.52
2023-01-07T18:06:47.412Z,100422.48
2023-01-07T18:09:16.644Z,100417.81
2023-01-07T18:12:04.940Z,100400.67
2023-01-07T18:14:34.391Z,100400.54
2023-01-07T18:17:03.610Z,100403.03
2023-01-07T18:19:33.106Z,100398.17
2023-01-07T18:22:02.286Z,100403.03
2023-01-07T18:24:31.807Z,100409.75
2023-01-07T18:27:00.987Z,100423.15
2023-01-07T18:29:30.236Z,100412.95
2023-01-07T18:31:59.591Z,100413.81
2023-01-07T18:34:29.633Z,100411.78
2023-01-07T18:36:58.871Z,100414.00
2023-01-07T18:39:28.955Z,100407.06
2023-01-07T18:41:58.289Z,100400.55
2023-01-07T18:44:27.940Z,100409.21
2023-01-07T18:46:57.223Z,100405.77
2023-01-07T18:49:26.736Z,100413.26
2023-01-07T18:51:56.299Z,100413.87
2023-01-07T18:54:25.636Z,100419.13
2023-01-07T18:56:54.836Z,100412.53
2023-01-07T18:59:24.969Z,100402.02
2023-01-07T19:01:56.100Z,100401.69
2023-01-07T19:04:26.122Z,100399.63
2023-01-07T19:06:55.573Z,100396.13
2023-01-07T19:09:24.933Z,100395.76
2023-01-07T19:11:54.139Z,100388.73
2023-01-07T19:14:23.469Z,100385.38
2023-01-07T19:16:53.515Z,100390.13
2023-01-07T19:19:23.147Z,100397.81
2023-01-07T19:21:52.465Z,100405.16
2023-01-07T19:24:22.656Z,100400.58
2023-01-07T19:26:52.829Z,100401.89
2023-01-07T19:29:22.282Z,100401.14
2023-01-07T19:31:51.647Z,100406.41
2023-01-07T19:34:21.134Z,100408.92
2023-01-07T19:36:50.849Z,100388.53
2023-01-07T19:39:22.778Z,100413.17
2023-01-07T19:41:52.653Z,100411.28
2023-01-07T19:44:22.131Z,100406.66
2023-01-07T19:46:51.675Z,100389.64
2023-01-07T19:49:20.980Z,100388.26
2023-01-07T19:51:52.684Z,100387.64
2023-01-07T19:54:22.206Z,100388.69
2023-01-07T19:56:51.685Z,100383.70
2023-01-07T19:59:21.392Z,100376.66
2023-01-07T20:01:50.805Z,100373.73
2023-01-07T20:04:20.435Z,100370.13
2023-01-07T20:06:51.023Z,100379.66
2023-01-07T20:09:20.602Z,100373.73
2023-01-07T20:11:50.075Z,100368.38
2023-01-07T20:14:19.276Z,100367.98
2023-01-07T20:16:48.844Z,100370.88
2023-01-07T20:19:18.274Z,100368.72
2023-01-07T20:21:47.522Z,100375.86
2023-01-07T20:24:17.197Z,100375.36
2023-01-07T20:26:46.433Z,100376.47
2023-01-07T20:29:15.921Z,100371.78
2023-01-07T20:31:45.337Z,100378.89
2023-01-07T20:34:14.807Z,100376.27
2023-01-07T20:36:44.037Z,100363.48
2023-01-07T20:39:13.732Z,100374.06
2023-01-07T20:41:43.918Z,100368.75
2023-01-07T20:44:13.475Z,100368.05
2023-01-07T20:46:43.101Z,100361.20
2023-01-07T20:49:13.014Z,100357.95
2023-01-07T20:51:42.810Z,100350.22
2023-01-07T20:54:13.162Z,100341.97
2023-01-07T20:56:43.261Z,100343.98
2023-01-07T20:59:14.359Z,100342.33
2023-01-07T21:01:43.887Z,100343.55
2023-01-07T21:04:13.789Z,100341.22
2023-01-07T21:06:43.635Z,100332.20
2023-01-07T21:09:13.038Z,100336.99
2023-01-07T21:11:43.416Z,100336.85
2023-01-07T21:14:12.762Z,100331.92
2023-01-07T21:16:42.197Z,100331.59
2023-01-07T21:19:12.033Z,100351.05
2023-01-07T21:21:41.366Z,100348.98
2023-01-07T21:24:12.159Z,100332.83
2023-01-07T21:26:41.475Z,100338.51
2023-01-07T21:29:10.993Z,100325.55
2023-01-07T21:31:40.306Z,100332.63
2023-01-07T21:34:11.015Z,100333.44
2023-01-07T21:36:41.766Z,100339.41
2023-01-07T21:39:13.340Z,100338.56
2023-01-07T21:41:42.646Z,100341.75
2023-01-07T21:44:13.130Z,100331.51
2023-01-07T21:46:42.417Z,100345.37
2023-01-07T21:49:11.871Z,100340.30
2023-01-07T21:51:41.428Z,100341.89
2023-01-07T21:54:11.163Z,100333.25
2023-01-07T21:56:40.574Z,100336.49
2023-01-07T21:59:10.271Z,100319.95
2023-01-07T22:01:40.213Z,100323.84
2023-01-07T22:04:10.357Z,100318.16
2023-01-07T22:06:39.940Z,100312.43
2023-01-07T22:09:13.469Z,100306.52
2023-01-07T22:11:44.157Z,100312.15
2023-01-07T22:14:16.664Z,100312.15
2023-01-07T22:16:48.819Z,100309.71
2023-01-07T22:19:16.913Z,100311.45
2023-01-07T22:21:46.461Z,100311.45
2023-01-07T22:24:15.736Z,100321.27
2023-01-07T22:26:45.264Z,100316.52
2023-01-07T22:29:14.991Z,100311.59
2023-01-07T22:31:46.156Z,100318.64
2023-01-07T22:34:15.771Z,100315.53
2023-01-07T22:36:57.338Z,100324.32
2023-01-07T22:39:36.253Z,100327.70
2023-01-07T22:42:14.400Z,100321.75
2023-01-07T22:44:49.327Z,100325.77
2023-01-07T22:47:20.897Z,100325.16
2023-01-07T22:49:50.861Z,100327.15
2023-01-07T22:52:20.513Z,100330.95
2023-01-07T22:54:50.181Z,100333.53
2023-01-07T22:57:19.758Z,100331.65
2023-01-07T22:59:49.264Z,100325.69
2023-01-07T23:02:18.833Z,100325.41
2023-01-07T23:04:48.396Z,100330.75
2023-01-07T23:07:17.637Z,100330.67
2023-01-07T23:09:47.341Z,100332.07
2023-01-07T23:12:16.558Z,100318.50
2023-01-07T23:14:45.845Z,100325.16
2023-01-07T23:17:15.258Z,100316.57
2023-01-07T23:19:44.489Z,100327.70
2023-01-07T23:22:13.723Z,100319.11
2023-01-07T23:24:43.212Z,100318.50
2023-01-07T23:27:14.030Z,100319.76
2023-01-07T23:29:43.240Z,100322.81
2023-01-07T23:32:12.793Z,100322.58
2023-01-07T23:34:42.041Z,100331.31
2023-01-07T23:37:11.910Z,100332.08
2023-01-07T23:39:41.248Z,100333.39
2023-01-07T23:42:10.513Z,100332.35
2023-01-07T23:44:39.985Z,100336.86
2023-01-07T23:47:09.218Z,100336.02
2023-01-07T23:49:38.588Z,100330.62
2023-01-07T23:52:08.211Z,100329.11
2023-01-07T23:54:37.807Z,100337.47
2023-01-07T23:57:07.210Z,100327.52
2023-01-07T23:59:36.516Z,100335.59
